sensor_id;sensor_type;location;lat;lon;timestamp;P1;durP1;ratioP1;P2;durP2;ratioP2
26335;SDS011;14047;50.936;4.654;2023-05-24T00:01:45;17.08;;;3.78;;
26335;SDS011;14047;50.936;4.654;2023-05-24T00:04:12;15.43;;;2.97;;
26335;SDS011;14047;50.936;4.654;2023-05-24T00:06:39;13.50;;;3.33;;
26335;SDS011;14047;50.936;4.654;2023-05-24T00:09:06;14.50;;;3.05;;
26335;SDS011;14047;50.936;4.654;2023-05-24T00:11:32;12.95;;;3.28;;
26335;SDS011;14047;50.936;4.654;2023-05-24T00:13:58;19.30;;;3.72;;
26335;SDS011;14047;50.936;4.654;2023-05-24T00:16:24;15.85;;;3.25;;
26335;SDS011;14047;50.936;4.654;2023-05-24T00:18:50;14.93;;;3.15;;
26335;SDS011;14047;50.936;4.654;2023-05-24T00:21:16;21.90;;;3.80;;
26335;SDS011;14047;50.936;4.654;2023-05-24T00:23:42;19.65;;;3.10;;
26335;SDS011;14047;50.936;4.654;2023-05-24T00:26:09;22.23;;;4.20;;
26335;SDS011;14047;50.936;4.654;2023-05-24T00:28:38;17.23;;;3.30;;
26335;SDS011;14047;50.936;4.654;2023-05-24T00:31:04;21.20;;;3.88;;
26335;SDS011;14047;50.936;4.654;2023-05-24T00:33:32;21.27;;;4.00;;
26335;SDS011;14047;50.936;4.654;2023-05-24T00:35:58;8.85;;;3.28;;
26335;SDS011;14047;50.936;4.654;2023-05-24T00:38:24;16.50;;;3.78;;
26335;SDS011;14047;50.936;4.654;2023-05-24T00:40:52;15.63;;;3.33;;
26335;SDS011;14047;50.936;4.654;2023-05-24T00:43:20;16.98;;;4.03;;
26335;SDS011;14047;50.936;4.654;2023-05-24T00:45:47;22.75;;;4.15;;
26335;SDS011;14047;50.936;4.654;2023-05-24T00:48:41;14.88;;;4.10;;
26335;SDS011;14047;50.936;4.654;2023-05-24T00:51:09;15.35;;;3.42;;
26335;SDS011;14047;50.936;4.654;2023-05-24T00:53:37;19.30;;;4.15;;
26335;SDS011;14047;50.936;4.654;2023-05-24T00:56:04;16.02;;;3.58;;
26335;SDS011;14047;50.936;4.654;2023-05-24T00:58:31;22.83;;;4.60;;
26335;SDS011;14047;50.936;4.654;2023-05-24T01:00:58;19.52;;;4.28;;
26335;SDS011;14047;50.936;4.654;2023-05-24T01:03:25;18.75;;;3.70;;
26335;SDS011;14047;50.936;4.654;2023-05-24T01:06:00;18.00;;;4.03;;
26335;SDS011;14047;50.936;4.654;2023-05-24T01:13:46;14.05;;;3.50;;
26335;SDS011;14047;50.936;4.654;2023-05-24T01:16:41;12.07;;;3.65;;
26335;SDS011;14047;50.936;4.654;2023-05-24T01:19:39;14.35;;;3.30;;
26335;SDS011;14047;50.936;4.654;2023-05-24T01:22:34;15.00;;;3.33;;
26335;SDS011;14047;50.936;4.654;2023-05-24T01:27:47;15.05;;;3.47;;
26335;SDS011;14047;50.936;4.654;2023-05-24T01:30:15;12.75;;;3.58;;
26335;SDS011;14047;50.936;4.654;2023-05-24T01:32:41;19.55;;;3.72;;
26335;SDS011;14047;50.936;4.654;2023-05-24T01:35:08;18.38;;;3.85;;
26335;SDS011;14047;50.936;4.654;2023-05-24T01:37:34;16.67;;;4.38;;
26335;SDS011;14047;50.936;4.654;2023-05-24T01:40:00;15.25;;;3.90;;
26335;SDS011;14047;50.936;4.654;2023-05-24T01:42:35;14.35;;;4.28;;
26335;SDS011;14047;50.936;4.654;2023-05-24T01:50:23;16.30;;;4.45;;
26335;SDS011;14047;50.936;4.654;2023-05-24T01:52:52;8.25;;;3.30;;
26335;SDS011;14047;50.936;4.654;2023-05-24T01:55:22;16.02;;;3.83;;
26335;SDS011;14047;50.936;4.654;2023-05-24T01:57:52;15.65;;;4.60;;
26335;SDS011;14047;50.936;4.654;2023-05-24T02:00:25;15.55;;;5.03;;
26335;SDS011;14047;50.936;4.654;2023-05-24T02:02:53;17.88;;;4.60;;
26335;SDS011;14047;50.936;4.654;2023-05-24T02:05:20;15.15;;;4.75;;
26335;SDS011;14047;50.936;4.654;2023-05-24T02:07:46;17.70;;;4.47;;
26335;SDS011;14047;50.936;4.654;2023-05-24T02:10:12;16.00;;;4.22;;
26335;SDS011;14047;50.936;4.654;2023-05-24T02:12:38;17.80;;;4.40;;
26335;SDS011;14047;50.936;4.654;2023-05-24T02:15:05;17.38;;;4.05;;
26335;SDS011;14047;50.936;4.654;2023-05-24T02:17:32;14.25;;;4.43;;
26335;SDS011;14047;50.936;4.654;2023-05-24T02:20:00;11.02;;;3.58;;
26335;SDS011;14047;50.936;4.654;2023-05-24T02:22:27;20.80;;;4.15;;
26335;SDS011;14047;50.936;4.654;2023-05-24T02:24:53;10.25;;;3.45;;
26335;SDS011;14047;50.936;4.654;2023-05-24T02:27:19;12.43;;;3.65;;
26335;SDS011;14047;50.936;4.654;2023-05-24T02:29:45;10.85;;;4.00;;
26335;SDS011;14047;50.936;4.654;2023-05-24T02:32:12;14.00;;;3.80;;
26335;SDS011;14047;50.936;4.654;2023-05-24T02:34:38;12.85;;;3.22;;
26335;SDS011;14047;50.936;4.654;2023-05-24T02:37:04;19.33;;;4.22;;
26335;SDS011;14047;50.936;4.654;2023-05-24T02:39:30;12.00;;;3.85;;
26335;SDS011;14047;50.936;4.654;2023-05-24T02:41:56;15.45;;;3.75;;
26335;SDS011;14047;50.936;4.654;2023-05-24T02:44:22;14.40;;;4.28;;
26335;SDS011;14047;50.936;4.654;2023-05-24T02:46:48;20.02;;;4.47;;
26335;SDS011;14047;50.936;4.654;2023-05-24T02:49:14;12.48;;;3.92;;
26335;SDS011;14047;50.936;4.654;2023-05-24T02:51:40;12.10;;;3.85;;
26335;SDS011;14047;50.936;4.654;2023-05-24T02:54:06;14.68;;;3.90;;
26335;SDS011;14047;50.936;4.654;2023-05-24T02:56:32;20.73;;;4.10;;
26335;SDS011;14047;50.936;4.654;2023-05-24T02:58:59;18.83;;;3.75;;
26335;SDS011;14047;50.936;4.654;2023-05-24T03:01:25;16.75;;;4.18;;
26335;SDS011;14047;50.936;4.654;2023-05-24T03:03:52;17.02;;;3.97;;
26335;SDS011;14047;50.936;4.654;2023-05-24T03:06:18;10.05;;;3.70;;
26335;SDS011;14047;50.936;4.654;2023-05-24T03:08:45;14.00;;;4.03;;
26335;SDS011;14047;50.936;4.654;2023-05-24T03:11:12;17.20;;;4.43;;
26335;SDS011;14047;50.936;4.654;2023-05-24T03:13:40;9.43;;;4.18;;
26335;SDS011;14047;50.936;4.654;2023-05-24T03:16:06;18.05;;;4.47;;
26335;SDS011;14047;50.936;4.654;2023-05-24T03:18:33;10.55;;;4.28;;
26335;SDS011;14047;50.936;4.654;2023-05-24T03:20:59;13.43;;;3.65;;
26335;SDS011;14047;50.936;4.654;2023-05-24T03:23:25;23.60;;;3.80;;
26335;SDS011;14047;50.936;4.654;2023-05-24T03:25:52;12.50;;;3.95;;
26335;SDS011;14047;50.936;4.654;2023-05-24T03:28:18;14.93;;;4.05;;
26335;SDS011;14047;50.936;4.654;2023-05-24T03:30:47;20.25;;;4.40;;
26335;SDS011;14047;50.936;4.654;2023-05-24T03:33:13;19.58;;;5.18;;
26335;SDS011;14047;50.936;4.654;2023-05-24T03:35:40;13.23;;;4.40;;
26335;SDS011;14047;50.936;4.654;2023-05-24T03:38:06;18.75;;;4.70;;
26335;SDS011;14047;50.936;4.654;2023-05-24T03:40:34;15.13;;;4.22;;
26335;SDS011;14047;50.936;4.654;2023-05-24T03:43:05;19.33;;;4.10;;
26335;SDS011;14047;50.936;4.654;2023-05-24T03:45:45;18.10;;;5.05;;
26335;SDS011;14047;50.936;4.654;2023-05-24T03:48:11;14.00;;;4.00;;
26335;SDS011;14047;50.936;4.654;2023-05-24T03:50:37;21.02;;;3.97;;
26335;SDS011;14047;50.936;4.654;2023-05-24T03:53:03;10.63;;;3.40;;
26335;SDS011;14047;50.936;4.654;2023-05-24T03:55:30;11.30;;;3.60;;
26335;SDS011;14047;50.936;4.654;2023-05-24T03:57:56;20.75;;;4.20;;
26335;SDS011;14047;50.936;4.654;2023-05-24T04:00:22;12.38;;;3.70;;
26335;SDS011;14047;50.936;4.654;2023-05-24T04:02:48;16.90;;;4.57;;
26335;SDS011;14047;50.936;4.654;2023-05-24T04:05:14;9.20;;;3.92;;
26335;SDS011;14047;50.936;4.654;2023-05-24T04:07:40;13.77;;;4.20;;
26335;SDS011;14047;50.936;4.654;2023-05-24T04:10:08;16.77;;;4.15;;
26335;SDS011;14047;50.936;4.654;2023-05-24T04:12:34;18.75;;;4.10;;
26335;SDS011;14047;50.936;4.654;2023-05-24T04:15:00;18.38;;;4.45;;
26335;SDS011;14047;50.936;4.654;2023-05-24T04:17:28;17.20;;;4.38;;
26335;SDS011;14047;50.936;4.654;2023-05-24T04:19:59;19.73;;;4.50;;
26335;SDS011;14047;50.936;4.654;2023-05-24T04:22:26;19.58;;;4.20;;
26335;SDS011;14047;50.936;4.654;2023-05-24T04:24:52;17.33;;;4.35;;
26335;SDS011;14047;50.936;4.654;2023-05-24T04:27:18;16.58;;;4.55;;
26335;SDS011;14047;50.936;4.654;2023-05-24T04:29:45;15.57;;;4.60;;
26335;SDS011;14047;50.936;4.654;2023-05-24T04:32:15;12.57;;;4.70;;
26335;SDS011;14047;50.936;4.654;2023-05-24T04:34:43;17.27;;;4.47;;
26335;SDS011;14047;50.936;4.654;2023-05-24T04:37:11;13.32;;;4.43;;
26335;SDS011;14047;50.936;4.654;2023-05-24T04:39:38;18.60;;;4.68;;
26335;SDS011;14047;50.936;4.654;2023-05-24T04:42:05;16.85;;;4.63;;
26335;SDS011;14047;50.936;4.654;2023-05-24T04:44:32;17.35;;;4.00;;
26335;SDS011;14047;50.936;4.654;2023-05-24T04:46:58;14.57;;;4.80;;
26335;SDS011;14047;50.936;4.654;2023-05-24T04:49:25;13.63;;;4.10;;
26335;SDS011;14047;50.936;4.654;2023-05-24T04:51:51;13.32;;;4.35;;
26335;SDS011;14047;50.936;4.654;2023-05-24T04:54:17;18.05;;;5.40;;
26335;SDS011;14047;50.936;4.654;2023-05-24T04:56:43;18.92;;;4.88;;
26335;SDS011;14047;50.936;4.654;2023-05-24T04:59:09;16.17;;;4.70;;
26335;SDS011;14047;50.936;4.654;2023-05-24T05:01:35;18.50;;;5.80;;
26335;SDS011;14047;50.936;4.654;2023-05-24T05:04:01;12.13;;;4.43;;
26335;SDS011;14047;50.936;4.654;2023-05-24T05:06:30;17.90;;;5.10;;
26335;SDS011;14047;50.936;4.654;2023-05-24T05:08:59;24.58;;;4.88;;
26335;SDS011;14047;50.936;4.654;2023-05-24T05:11:25;19.23;;;4.50;;
26335;SDS011;14047;50.936;4.654;2023-05-24T05:13:52;15.27;;;4.43;;
26335;SDS011;14047;50.936;4.654;2023-05-24T05:16:19;19.15;;;4.60;;
26335;SDS011;14047;50.936;4.654;2023-05-24T05:18:45;21.88;;;5.25;;
26335;SDS011;14047;50.936;4.654;2023-05-24T05:21:10;17.65;;;4.97;;
26335;SDS011;14047;50.936;4.654;2023-05-24T05:23:36;14.90;;;5.25;;
26335;SDS011;14047;50.936;4.654;2023-05-24T05:26:04;21.05;;;5.68;;
26335;SDS011;14047;50.936;4.654;2023-05-24T05:28:32;19.90;;;5.32;;
26335;SDS011;14047;50.936;4.654;2023-05-24T05:30:58;27.35;;;4.88;;
26335;SDS011;14047;50.936;4.654;2023-05-24T05:33:24;13.70;;;5.13;;
26335;SDS011;14047;50.936;4.654;2023-05-24T05:35:50;15.23;;;5.45;;
26335;SDS011;14047;50.936;4.654;2023-05-24T05:38:16;15.20;;;5.00;;
26335;SDS011;14047;50.936;4.654;2023-05-24T05:40:42;20.40;;;5.80;;
26335;SDS011;14047;50.936;4.654;2023-05-24T05:43:08;18.98;;;5.45;;
26335;SDS011;14047;50.936;4.654;2023-05-24T05:45:34;17.30;;;5.50;;
26335;SDS011;14047;50.936;4.654;2023-05-24T05:48:00;16.95;;;5.20;;
26335;SDS011;14047;50.936;4.654;2023-05-24T05:50:26;21.98;;;5.25;;
26335;SDS011;14047;50.936;4.654;2023-05-24T05:52:52;19.52;;;6.50;;
26335;SDS011;14047;50.936;4.654;2023-05-24T05:55:18;23.58;;;5.65;;
26335;SDS011;14047;50.936;4.654;2023-05-24T05:57:44;16.00;;;4.88;;
26335;SDS011;14047;50.936;4.654;2023-05-24T06:00:10;14.07;;;5.22;;
26335;SDS011;14047;50.936;4.654;2023-05-24T06:02:39;19.27;;;4.97;;
26335;SDS011;14047;50.936;4.654;2023-05-24T06:05:05;21.83;;;5.63;;
26335;SDS011;14047;50.936;4.654;2023-05-24T06:07:31;22.15;;;5.55;;
26335;SDS011;14047;50.936;4.654;2023-05-24T06:09:58;21.95;;;5.82;;
26335;SDS011;14047;50.936;4.654;2023-05-24T06:12:24;18.45;;;5.32;;
26335;SDS011;14047;50.936;4.654;2023-05-24T06:14:50;14.57;;;4.45;;
26335;SDS011;14047;50.936;4.654;2023-05-24T06:17:17;15.98;;;4.88;;
26335;SDS011;14047;50.936;4.654;2023-05-24T06:19:43;16.42;;;4.65;;
26335;SDS011;14047;50.936;4.654;2023-05-24T06:22:10;25.38;;;5.18;;
26335;SDS011;14047;50.936;4.654;2023-05-24T06:24:36;11.90;;;4.32;;
26335;SDS011;14047;50.936;4.654;2023-05-24T06:27:03;20.60;;;5.30;;
26335;SDS011;14047;50.936;4.654;2023-05-24T06:29:30;20.20;;;4.40;;
26335;SDS011;14047;50.936;4.654;2023-05-24T06:31:55;20.48;;;4.00;;
26335;SDS011;14047;50.936;4.654;2023-05-24T06:34:21;12.63;;;4.43;;
26335;SDS011;14047;50.936;4.654;2023-05-24T06:36:48;12.70;;;3.67;;
26335;SDS011;14047;50.936;4.654;2023-05-24T06:39:15;16.45;;;4.07;;
26335;SDS011;14047;50.936;4.654;2023-05-24T06:41:42;13.70;;;4.18;;
26335;SDS011;14047;50.936;4.654;2023-05-24T06:44:08;11.63;;;4.05;;
26335;SDS011;14047;50.936;4.654;2023-05-24T06:46:35;13.80;;;3.90;;
26335;SDS011;14047;50.936;4.654;2023-05-24T06:49:01;12.88;;;3.78;;
26335;SDS011;14047;50.936;4.654;2023-05-24T06:51:31;20.83;;;4.55;;
26335;SDS011;14047;50.936;4.654;2023-05-24T06:53:58;19.25;;;3.92;;
26335;SDS011;14047;50.936;4.654;2023-05-24T06:56:24;26.80;;;4.25;;
26335;SDS011;14047;50.936;4.654;2023-05-24T06:58:51;16.13;;;4.50;;
26335;SDS011;14047;50.936;4.654;2023-05-24T07:01:17;17.13;;;4.10;;
26335;SDS011;14047;50.936;4.654;2023-05-24T07:03:46;20.15;;;4.00;;
26335;SDS011;14047;50.936;4.654;2023-05-24T07:06:12;23.42;;;4.00;;
26335;SDS011;14047;50.936;4.654;2023-05-24T07:08:40;16.98;;;3.83;;
26335;SDS011;14047;50.936;4.654;2023-05-24T07:11:06;13.90;;;3.70;;
26335;SDS011;14047;50.936;4.654;2023-05-24T07:13:33;15.95;;;3.47;;
26335;SDS011;14047;50.936;4.654;2023-05-24T07:15:59;19.08;;;3.90;;
26335;SDS011;14047;50.936;4.654;2023-05-24T07:18:25;18.60;;;3.80;;
26335;SDS011;14047;50.936;4.654;2023-05-24T07:20:51;17.08;;;3.70;;
26335;SDS011;14047;50.936;4.654;2023-05-24T07:23:17;14.93;;;3.40;;
26335;SDS011;14047;50.936;4.654;2023-05-24T07:25:43;17.58;;;4.18;;
26335;SDS011;14047;50.936;4.654;2023-05-24T07:28:10;13.95;;;3.25;;
26335;SDS011;14047;50.936;4.654;2023-05-24T07:30:36;18.67;;;3.90;;
26335;SDS011;14047;50.936;4.654;2023-05-24T07:33:03;17.30;;;3.80;;
26335;SDS011;14047;50.936;4.654;2023-05-24T07:35:29;15.38;;;3.63;;
26335;SDS011;14047;50.936;4.654;2023-05-24T07:37:55;19.98;;;3.53;;
26335;SDS011;14047;50.936;4.654;2023-05-24T07:40:21;18.00;;;3.35;;
26335;SDS011;14047;50.936;4.654;2023-05-24T07:42:48;15.88;;;3.42;;
26335;SDS011;14047;50.936;4.654;2023-05-24T07:45:14;19.83;;;3.72;;
26335;SDS011;14047;50.936;4.654;2023-05-24T07:47:40;15.82;;;3.80;;
26335;SDS011;14047;50.936;4.654;2023-05-24T07:50:06;18.60;;;3.63;;
26335;SDS011;14047;50.936;4.654;2023-05-24T07:52:32;17.13;;;3.63;;
26335;SDS011;14047;50.936;4.654;2023-05-24T07:54:58;16.23;;;3.70;;
26335;SDS011;14047;50.936;4.654;2023-05-24T07:57:25;16.10;;;3.33;;
26335;SDS011;14047;50.936;4.654;2023-05-24T07:59:50;15.43;;;3.65;;
26335;SDS011;14047;50.936;4.654;2023-05-24T08:02:16;24.40;;;4.43;;
26335;SDS011;14047;50.936;4.654;2023-05-24T08:04:43;17.20;;;4.40;;
26335;SDS011;14047;50.936;4.654;2023-05-24T08:07:10;22.55;;;3.63;;
26335;SDS011;14047;50.936;4.654;2023-05-24T08:09:36;20.05;;;3.72;;
26335;SDS011;14047;50.936;4.654;2023-05-24T08:12:06;10.73;;;3.03;;
26335;SDS011;14047;50.936;4.654;2023-05-24T08:14:32;16.98;;;3.92;;
26335;SDS011;14047;50.936;4.654;2023-05-24T08:16:58;14.23;;;3.28;;
26335;SDS011;14047;50.936;4.654;2023-05-24T08:19:27;21.52;;;3.80;;
26335;SDS011;14047;50.936;4.654;2023-05-24T08:22:00;19.15;;;3.60;;
26335;SDS011;14047;50.936;4.654;2023-05-24T08:24:30;20.60;;;3.75;;
26335;SDS011;14047;50.936;4.654;2023-05-24T08:26:56;21.23;;;3.67;;
26335;SDS011;14047;50.936;4.654;2023-05-24T08:29:23;13.73;;;3.05;;
26335;SDS011;14047;50.936;4.654;2023-05-24T08:31:49;19.30;;;3.55;;
26335;SDS011;14047;50.936;4.654;2023-05-24T08:34:21;15.32;;;3.40;;
26335;SDS011;14047;50.936;4.654;2023-05-24T08:36:47;14.68;;;3.42;;
26335;SDS011;14047;50.936;4.654;2023-05-24T08:39:12;17.30;;;3.60;;
26335;SDS011;14047;50.936;4.654;2023-05-24T08:41:39;12.52;;;3.30;;
26335;SDS011;14047;50.936;4.654;2023-05-24T08:44:05;17.92;;;3.50;;
26335;SDS011;14047;50.936;4.654;2023-05-24T08:46:33;15.35;;;4.28;;
26335;SDS011;14047;50.936;4.654;2023-05-24T08:49:00;16.52;;;3.80;;
26335;SDS011;14047;50.936;4.654;2023-05-24T08:51:30;16.77;;;3.55;;
26335;SDS011;14047;50.936;4.654;2023-05-24T08:53:57;16.40;;;3.90;;
26335;SDS011;14047;50.936;4.654;2023-05-24T08:56:25;18.92;;;3.45;;
26335;SDS011;14047;50.936;4.654;2023-05-24T08:58:52;13.40;;;2.72;;
26335;SDS011;14047;50.936;4.654;2023-05-24T09:01:19;13.05;;;3.33;;
26335;SDS011;14047;50.936;4.654;2023-05-24T09:03:48;14.18;;;4.07;;
26335;SDS011;14047;50.936;4.654;2023-05-24T09:06:19;16.08;;;3.72;;
26335;SDS011;14047;50.936;4.654;2023-05-24T09:08:46;13.23;;;3.30;;
26335;SDS011;14047;50.936;4.654;2023-05-24T09:11:17;14.70;;;3.00;;
26335;SDS011;14047;50.936;4.654;2023-05-24T09:13:44;12.55;;;3.03;;
26335;SDS011;14047;50.936;4.654;2023-05-24T09:16:10;17.42;;;3.00;;
26335;SDS011;14047;50.936;4.654;2023-05-24T09:18:36;10.95;;;3.20;;
26335;SDS011;14047;50.936;4.654;2023-05-24T09:21:04;14.57;;;3.50;;
26335;SDS011;14047;50.936;4.654;2023-05-24T09:23:30;12.73;;;3.10;;
26335;SDS011;14047;50.936;4.654;2023-05-24T09:25:56;12.20;;;2.83;;
26335;SDS011;14047;50.936;4.654;2023-05-24T09:28:23;9.93;;;3.00;;
26335;SDS011;14047;50.936;4.654;2023-05-24T09:30:59;10.63;;;2.88;;
26335;SDS011;14047;50.936;4.654;2023-05-24T09:33:31;22.02;;;3.47;;
26335;SDS011;14047;50.936;4.654;2023-05-24T09:35:58;13.50;;;4.00;;
26335;SDS011;14047;50.936;4.654;2023-05-24T09:38:25;10.50;;;3.60;;
26335;SDS011;14047;50.936;4.654;2023-05-24T09:41:02;9.65;;;3.20;;
26335;SDS011;14047;50.936;4.654;2023-05-24T09:43:34;16.85;;;4.18;;
26335;SDS011;14047;50.936;4.654;2023-05-24T09:46:15;13.95;;;3.22;;
26335;SDS011;14047;50.936;4.654;2023-05-24T09:48:54;12.50;;;3.15;;
26335;SDS011;14047;50.936;4.654;2023-05-24T09:51:21;12.57;;;3.58;;
26335;SDS011;14047;50.936;4.654;2023-05-24T09:53:48;14.63;;;4.03;;
26335;SDS011;14047;50.936;4.654;2023-05-24T09:56:16;13.75;;;3.40;;
26335;SDS011;14047;50.936;4.654;2023-05-24T09:58:46;12.95;;;3.78;;
26335;SDS011;14047;50.936;4.654;2023-05-24T10:01:12;12.88;;;3.83;;
26335;SDS011;14047;50.936;4.654;2023-05-24T10:03:56;14.13;;;3.83;;
26335;SDS011;14047;50.936;4.654;2023-05-24T10:06:23;16.50;;;3.70;;
26335;SDS011;14047;50.936;4.654;2023-05-24T10:08:52;16.20;;;4.15;;
26335;SDS011;14047;50.936;4.654;2023-05-24T10:11:21;12.63;;;3.70;;
26335;SDS011;14047;50.936;4.654;2023-05-24T10:13:47;16.80;;;4.47;;
26335;SDS011;14047;50.936;4.654;2023-05-24T10:16:14;13.15;;;3.97;;
26335;SDS011;14047;50.936;4.654;2023-05-24T10:18:41;12.95;;;4.10;;
26335;SDS011;14047;50.936;4.654;2023-05-24T10:21:07;14.02;;;3.72;;
26335;SDS011;14047;50.936;4.654;2023-05-24T10:23:36;15.75;;;4.80;;
26335;SDS011;14047;50.936;4.654;2023-05-24T10:26:04;13.98;;;4.82;;
26335;SDS011;14047;50.936;4.654;2023-05-24T10:28:46;14.18;;;4.95;;
26335;SDS011;14047;50.936;4.654;2023-05-24T10:31:17;16.35;;;4.22;;
26335;SDS011;14047;50.936;4.654;2023-05-24T10:33:55;12.23;;;4.10;;
26335;SDS011;14047;50.936;4.654;2023-05-24T10:36:22;15.55;;;3.78;;
26335;SDS011;14047;50.936;4.654;2023-05-24T10:38:50;18.30;;;5.15;;
26335;SDS011;14047;50.936;4.654;2023-05-24T10:41:17;15.63;;;4.25;;
26335;SDS011;14047;50.936;4.654;2023-05-24T10:43:45;13.98;;;4.80;;
26335;SDS011;14047;50.936;4.654;2023-05-24T10:46:14;16.30;;;4.75;;
26335;SDS011;14047;50.936;4.654;2023-05-24T10:48:41;15.35;;;3.95;;
26335;SDS011;14047;50.936;4.654;2023-05-24T10:54:09;14.25;;;4.18;;
26335;SDS011;14047;50.936;4.654;2023-05-24T10:56:40;15.77;;;3.97;;
26335;SDS011;14047;50.936;4.654;2023-05-24T11:02:02;9.57;;;4.45;;
26335;SDS011;14047;50.936;4.654;2023-05-24T11:04:37;17.73;;;4.78;;
26335;SDS011;14047;50.936;4.654;2023-05-24T11:07:09;16.70;;;4.78;;
26335;SDS011;14047;50.936;4.654;2023-05-24T11:09:36;14.25;;;4.97;;
26335;SDS011;14047;50.936;4.654;2023-05-24T11:12:13;18.55;;;5.75;;
26335;SDS011;14047;50.936;4.654;2023-05-24T11:14:50;15.07;;;5.38;;
26335;SDS011;14047;50.936;4.654;2023-05-24T11:17:20;13.73;;;4.85;;
26335;SDS011;14047;50.936;4.654;2023-05-24T11:19:51;13.85;;;4.80;;
26335;SDS011;14047;50.936;4.654;2023-05-24T11:22:20;13.23;;;5.07;;
26335;SDS011;14047;50.936;4.654;2023-05-24T11:24:47;12.00;;;5.43;;
26335;SDS011;14047;50.936;4.654;2023-05-24T11:27:13;13.07;;;5.10;;
26335;SDS011;14047;50.936;4.654;2023-05-24T11:29:40;14.95;;;5.32;;
26335;SDS011;14047;50.936;4.654;2023-05-24T11:32:14;15.55;;;4.57;;
26335;SDS011;14047;50.936;4.654;2023-05-24T11:34:41;13.80;;;4.68;;
26335;SDS011;14047;50.936;4.654;2023-05-24T11:37:10;12.48;;;5.07;;
26335;SDS011;14047;50.936;4.654;2023-05-24T11:39:36;12.85;;;4.22;;
26335;SDS011;14047;50.936;4.654;2023-05-24T11:42:03;10.55;;;4.18;;
26335;SDS011;14047;50.936;4.654;2023-05-24T11:44:31;13.07;;;4.60;;
26335;SDS011;14047;50.936;4.654;2023-05-24T11:47:01;18.80;;;4.55;;
26335;SDS011;14047;50.936;4.654;2023-05-24T11:49:29;12.38;;;4.60;;
26335;SDS011;14047;50.936;4.654;2023-05-24T11:51:56;17.30;;;4.07;;
26335;SDS011;14047;50.936;4.654;2023-05-24T11:54:23;18.38;;;5.22;;
26335;SDS011;14047;50.936;4.654;2023-05-24T11:56:51;15.43;;;4.50;;
26335;SDS011;14047;50.936;4.654;2023-05-24T11:59:26;16.98;;;5.00;;
26335;SDS011;14047;50.936;4.654;2023-05-24T12:01:59;12.10;;;4.70;;
26335;SDS011;14047;50.936;4.654;2023-05-24T12:04:27;16.33;;;4.70;;
26335;SDS011;14047;50.936;4.654;2023-05-24T12:06:54;14.45;;;4.30;;
26335;SDS011;14047;50.936;4.654;2023-05-24T12:09:20;14.15;;;4.18;;
26335;SDS011;14047;50.936;4.654;2023-05-24T12:11:47;12.13;;;3.97;;
26335;SDS011;14047;50.936;4.654;2023-05-24T12:17:13;14.18;;;4.35;;
26335;SDS011;14047;50.936;4.654;2023-05-24T12:19:42;15.63;;;4.22;;
26335;SDS011;14047;50.936;4.654;2023-05-24T12:22:08;13.93;;;5.10;;
26335;SDS011;14047;50.936;4.654;2023-05-24T12:24:36;14.73;;;5.72;;
26335;SDS011;14047;50.936;4.654;2023-05-24T12:27:02;16.08;;;5.40;;
26335;SDS011;14047;50.936;4.654;2023-05-24T12:29:33;17.08;;;4.55;;
26335;SDS011;14047;50.936;4.654;2023-05-24T12:32:00;14.48;;;4.57;;
26335;SDS011;14047;50.936;4.654;2023-05-24T12:34:27;17.20;;;4.50;;
26335;SDS011;14047;50.936;4.654;2023-05-24T12:36:56;13.68;;;4.32;;
26335;SDS011;14047;50.936;4.654;2023-05-24T12:39:23;12.27;;;4.03;;
26335;SDS011;14047;50.936;4.654;2023-05-24T12:41:59;11.55;;;4.35;;
26335;SDS011;14047;50.936;4.654;2023-05-24T12:44:27;9.73;;;3.97;;
26335;SDS011;14047;50.936;4.654;2023-05-24T12:46:58;14.18;;;4.00;;
26335;SDS011;14047;50.936;4.654;2023-05-24T12:49:29;14.85;;;4.40;;
26335;SDS011;14047;50.936;4.654;2023-05-24T12:51:56;18.63;;;4.70;;
26335;SDS011;14047;50.936;4.654;2023-05-24T12:54:25;13.80;;;4.55;;
26335;SDS011;14047;50.936;4.654;2023-05-24T12:56:52;12.02;;;4.30;;
26335;SDS011;14047;50.936;4.654;2023-05-24T12:59:19;16.20;;;4.40;;
26335;SDS011;14047;50.936;4.654;2023-05-24T13:01:45;14.07;;;5.28;;
26335;SDS011;14047;50.936;4.654;2023-05-24T13:04:20;10.68;;;4.65;;
26335;SDS011;14047;50.936;4.654;2023-05-24T13:06:47;15.77;;;4.55;;
26335;SDS011;14047;50.936;4.654;2023-05-24T13:09:13;16.20;;;4.20;;
26335;SDS011;14047;50.936;4.654;2023-05-24T13:11:42;11.93;;;4.50;;
26335;SDS011;14047;50.936;4.654;2023-05-24T13:14:08;15.05;;;4.75;;
26335;SDS011;14047;50.936;4.654;2023-05-24T13:16:35;10.38;;;4.43;;
26335;SDS011;14047;50.936;4.654;2023-05-24T13:19:01;14.05;;;4.85;;
26335;SDS011;14047;50.936;4.654;2023-05-24T13:21:27;12.48;;;4.32;;
26335;SDS011;14047;50.936;4.654;2023-05-24T13:23:53;14.63;;;4.90;;
26335;SDS011;14047;50.936;4.654;2023-05-24T13:26:19;14.43;;;4.63;;
26335;SDS011;14047;50.936;4.654;2023-05-24T13:28:46;9.82;;;3.60;;
26335;SDS011;14047;50.936;4.654;2023-05-24T13:31:12;12.00;;;3.65;;
26335;SDS011;14047;50.936;4.654;2023-05-24T13:33:38;11.77;;;4.47;;
26335;SDS011;14047;50.936;4.654;2023-05-24T13:36:04;13.95;;;4.40;;
26335;SDS011;14047;50.936;4.654;2023-05-24T13:38:31;10.68;;;4.28;;
26335;SDS011;14047;50.936;4.654;2023-05-24T13:40:57;16.55;;;4.45;;
26335;SDS011;14047;50.936;4.654;2023-05-24T13:43:23;12.90;;;4.25;;
26335;SDS011;14047;50.936;4.654;2023-05-24T13:45:50;12.00;;;4.93;;
26335;SDS011;14047;50.936;4.654;2023-05-24T13:48:17;14.20;;;4.38;;
26335;SDS011;14047;50.936;4.654;2023-05-24T13:50:43;14.15;;;5.15;;
26335;SDS011;14047;50.936;4.654;2023-05-24T13:53:09;10.93;;;4.45;;
26335;SDS011;14047;50.936;4.654;2023-05-24T13:55:35;14.43;;;4.15;;
26335;SDS011;14047;50.936;4.654;2023-05-24T13:58:05;13.57;;;4.00;;
26335;SDS011;14047;50.936;4.654;2023-05-24T14:00:31;15.85;;;4.43;;
26335;SDS011;14047;50.936;4.654;2023-05-24T14:02:58;14.80;;;4.63;;
26335;SDS011;14047;50.936;4.654;2023-05-24T14:05:24;14.65;;;4.45;;
26335;SDS011;14047;50.936;4.654;2023-05-24T14:07:50;17.00;;;4.72;;
26335;SDS011;14047;50.936;4.654;2023-05-24T14:10:16;16.70;;;4.65;;
26335;SDS011;14047;50.936;4.654;2023-05-24T14:12:42;15.45;;;4.65;;
26335;SDS011;14047;50.936;4.654;2023-05-24T14:15:08;17.38;;;4.72;;
26335;SDS011;14047;50.936;4.654;2023-05-24T14:17:34;14.63;;;4.65;;
26335;SDS011;14047;50.936;4.654;2023-05-24T14:20:00;15.95;;;4.40;;
26335;SDS011;14047;50.936;4.654;2023-05-24T14:22:27;12.45;;;4.50;;
26335;SDS011;14047;50.936;4.654;2023-05-24T14:24:53;10.98;;;4.70;;
26335;SDS011;14047;50.936;4.654;2023-05-24T14:27:19;14.65;;;4.53;;
26335;SDS011;14047;50.936;4.654;2023-05-24T14:29:45;11.63;;;4.03;;
26335;SDS011;14047;50.936;4.654;2023-05-24T14:32:11;12.52;;;4.03;;
26335;SDS011;14047;50.936;4.654;2023-05-24T14:34:37;14.50;;;4.15;;
26335;SDS011;14047;50.936;4.654;2023-05-24T14:37:03;11.57;;;3.78;;
26335;SDS011;14047;50.936;4.654;2023-05-24T14:39:30;16.08;;;4.25;;
26335;SDS011;14047;50.936;4.654;2023-05-24T14:41:56;12.27;;;4.05;;
26335;SDS011;14047;50.936;4.654;2023-05-24T14:44:22;14.95;;;4.18;;
26335;SDS011;14047;50.936;4.654;2023-05-24T14:46:48;17.25;;;3.60;;
26335;SDS011;14047;50.936;4.654;2023-05-24T14:49:14;13.55;;;3.75;;
26335;SDS011;14047;50.936;4.654;2023-05-24T14:51:40;18.15;;;4.72;;
26335;SDS011;14047;50.936;4.654;2023-05-24T14:54:06;14.60;;;4.20;;
26335;SDS011;14047;50.936;4.654;2023-05-24T14:56:32;19.08;;;4.75;;
26335;SDS011;14047;50.936;4.654;2023-05-24T14:58:58;20.27;;;3.97;;
26335;SDS011;14047;50.936;4.654;2023-05-24T15:01:24;19.48;;;4.05;;